<<    Februar 2013    >>
Datum    Temp.       Tempmin      Tempmax    Taup.       Taup.min      Taup.max    Feuchte    Feuchtemin    Feuchtemax    Druck    Druckmin    Druckmax    Regen    Wind    Benmax  
  01.02.2013  6,5    3,7    23:46    8,1    00:00  4,4    1,5    09:33    6,2    20:36  87,2    65    09:33    98    13:31  1002,9    991    20:19    1014    00:00  6,7  3,7  23,4  
  02.02.2013  3,5    2,1    12:24    5,0    15:12  1,4    -3,8    16:22    3,6    05:20  87,3    54    16:22    98    00:00  1006,5    997    00:00    1016    21:52  1,8  5,2  23,0  
  03.02.2013  4,1    2,8    00:00    5,7    23:59  1,6    -4,3    15:09    5,1    23:59  84,5    51    15:07    98    19:57  1017,7    1013    21:51    1021    09:19  0,9  5,5  20,9  
  04.02.2013  7,5    5,6    00:05    10,7    14:41  5,2    0,6    14:53    9,0    12:18  86,1    50    14:53    98    03:34  1011,3    1009    06:48    1014    00:00  1,2  5,3  23,0  
  05.02.2013  4,0    0,3    23:25    6,6    02:15  0,1    -4,1    16:55    3,5    08:40  76,0    52    15:02    97    08:40  1002,3    999    23:59    1011    00:00  1,8  4,7  25,2  
  06.02.2013  1,6    0,3    19:17    3,1    16:19  0,5    -2,1    02:23    2,7    13:48  92,8    77    02:25    98    04:03  999,4    993    08:03    1008    23:59  4,6  3,0  20,9  
  07.02.2013  2,5    1,4    02:02    5,8    13:54  0,7    -2,2    14:32    1,9    10:09  88,3    60    14:06    98    02:54  1011,2    1007    00:33    1014    19:48  0,0  4,4  15,1  
  08.02.2013  1,2    -0,8    23:59    2,9    14:43  -0,3    -3,9    15:58    2,0    12:12  90,7    64    15:52    98    04:43  1014,7    1011    04:36    1018    21:48  3,0  2,9  15,8  
  09.02.2013  -0,3    -3,2    22:13    2,5    14:08  -1,8    -4,4    18:29    0,3    10:53  90,1    67    16:06    98    00:49  1020,0    1017    00:00    1022    08:48  0,0  1,3  9,4  
  10.02.2013  -0,7    -3,1    08:01    2,7    15:48  -5,9    -10,4    23:50    -2,2    02:40  70,0    44    15:24    96    01:48  1013,2    1006    23:59    1019    03:17  0,0  4,3  21,2  
  11.02.2013  0,0    -2,3    00:57    2,5    14:50  -9,6    -10,6    01:54    -7,7    23:00  48,3    41    12:02    58    23:57  1005,3    1003    02:32    1010    23:03  0,0  4,8  21,2  
  12.02.2013  -0,8    -4,5    06:14    1,4    15:10  -8,4    -9,9    23:28    -6,0    08:53  57,0    45    15:49    74    07:27  1015,1    1009    01:02    1020    22:34  0,0  1,6  9,7  
  13.02.2013  -0,3    -3,5    07:14    3,3    13:42  -8,3    -10,1    05:09    -6,0    10:45  54,9    45    14:09    69    08:53  1025,0    1020    00:00    1029    19:01  0,0  0,9  10,1  
  14.02.2013  -0,9    -3,4    00:36    1,9    15:35  -6,8    -10,0    02:42    -0,6    22:42  65,9    47    15:13    97    23:59  1021,0    1015    23:01    1028    00:01  0,0  4,8  21,2  
  15.02.2013  2,1    -0,2    00:00    4,1    15:43  1,6    -0,6    00:00    3,7    15:43  96,6    94    11:32    98    23:59  1018,8    1015    00:01    1022    23:59  1,9  0,8  11,5  
  16.02.2013  4,6    3,0    00:43    7,0    14:11  4,2    2,7    00:43    6,6    13:44  96,8    90    15:30    98    00:00  1024,5    1022    00:00    1026    11:02  1,1  0,7  8,6  
  17.02.2013  4,5    0,6    23:59    8,8    14:32  1,9    -1,3    20:13    5,7    11:22  84,7    58    14:34    98    00:00  1024,7    1023    14:01    1026    00:00  0,0  0,7  9,4  
  18.02.2013  1,5    -3,0    07:32    6,8    15:24  -2,5    -4,7    18:30    1,1    10:09  76,7    49    15:22    98    08:54  1023,1    1021    16:16    1024    00:00  0,0  0,5  9,4  
  19.02.2013  2,0    -0,8    04:13    3,9    15:16  0,3    -2,9    00:32    3,1    21:57  88,7    79    13:23    98    20:41  1020,1    1018    16:01    1022    00:00  0,0  1,7  11,9  
  20.02.2013  0,6    -2,2    07:32    4,0    13:35  -5,6    -8,8    14:41    0,5    00:00  64,5    41    14:41    92    00:59  1025,5    1021    01:45    1027    23:59  0,0  3,6  19,4  
  21.02.2013  -0,3    -2,5    08:00    2,7    15:23  -6,8    -9,2    12:18    -5,2    10:50  61,7    43    15:27    72    21:39  1024,5    1021    21:16    1027    00:00  0,0  4,5  16,9  
  22.02.2013  -1,4    -2,8    21:00    1,6    13:46  -9,4    -11,5    18:00    -5,2    02:32  54,9    41    13:36    77    02:32  1019,6    1017    17:29    1023    00:04  0,0  4,9  20,5  
  23.02.2013  -2,0    -3,3    02:18    -1,1    16:24  -6,7    -10,0    00:00    -3,2    23:59  70,8    56    00:00    88    23:59  1017,0    1015    03:31    1018    00:00  0,0  4,8  17,6  
  24.02.2013  0,8    -1,5    00:00    2,9    12:46  -0,5    -3,2    00:00    0,8    15:05  91,4    83    12:50    96    06:35  1016,9    1015    01:44    1020    23:59  1,9  3,2  12,6  
  25.02.2013  1,7    1,1    00:00    2,6    14:23  1,4    0,5    00:00    2,3    14:23  98,0    96    00:00    98    23:59  1021,5    1019    00:29    1026    21:29  5,7  2,2  10,4  
  26.02.2013  3,5    -0,9    06:06    6,9    16:09  1,7    -1,2    06:06    4,2    10:41  88,5    69    12:20    98    00:00  1030,0    1026    00:00    1032    09:13  0,0  2,6  16,6  
  27.02.2013  2,4    1,5    06:40    3,6    15:25  0,1    -1,0    15:02    1,8    00:22  84,9    73    15:02    94    02:44  1031,6    1031    01:14    1033    04:28  0,0  3,2  13,0  
  28.02.2013  3,8    1,5    06:30    7,0    14:15  -0,8    -2,1    18:35    1,1    11:32  72,3    56    15:03    86    07:57  1028,4    1026    16:58    1031    00:00  0,0  2,2  11,9  
 
  Gesamt  1,9  -4,5            10,7            -1,7  -11,5            9,0            78,9  41            98            1017,6  991            1033            30,4  3,1  25,2  
 
  Mittelwert  1,9  -0,5            4,4            -1,7  -4,5            1,0            78,9  60,4            91,6            1017,6  1013,6            1021,5            1,1  3,1  16,1  
  Minimum  -2,0  -4,5            -1,1            -9,6  -11,5            -7,7            48,3  41,0            58,0            999,4  991,0            1008,0            0,0  0,5  8,6  
  Maximum  7,5  5,6            10,7            5,2  2,7            9,0            98,0  96,0            98,0            1031,6  1031,0            1033,0            6,7  5,5  25,2  

  Heie Tage    Tmax >=30C     0  
  Sommertage    Tmax >=25C     0  
  Warme Tage    Tmax >=20C     0  
  Kalte Tage    Tmax  <10C     27  
  Frosttage    Tmin  <0C     16  
  Eistage    Tmax  <0C     1  
  Regentage > 0 mm    11  
  Regentage > 2 mm    4  
  Regentage > 10 mm    0  
  Regentage > 20 mm    0